Time;durP1;ratioP1;P1;durP2;ratioP2;P2;SDS_P1;SDS_P2;PMS_P1;PMS_P2;Temp;Humidity;BMP_temperature;BMP_pressure;BME280_temperature;BME280_humidity;BME280_pressure;Samples;Min_cycle;Max_cycle;Signal;HPM_P1;HPM_P2
2023/10/14 00:02:20;;;;;;;12.73;7.00;;;;;;;17.99;85.52;99209.88;5076649;28;20541;-74
2023/10/14 00:04:52;;;;;;;11.60;7.20;;;;;;;18.03;84.86;99198.31;5076502;28;20226;-74
2023/10/14 00:07:25;;;;;;;12.33;7.70;;;;;;;18.06;84.45;99199.69;5076517;28;20560;-74
2023/10/14 00:09:57;;;;;;;11.17;7.00;;;;;;;18.14;83.48;99191.19;5076461;28;20272;-74
2023/10/14 00:12:28;;;;;;;14.33;7.23;;;;;;;18.13;83.58;99189.53;5076432;28;20194;-74
2023/10/14 00:15:03;;;;;;;14.23;7.50;;;;;;;18.17;83.17;99185.25;5076863;28;20351;-74
2023/10/14 00:17:36;;;;;;;11.67;7.20;;;;;;;18.18;82.94;99165.25;5076399;28;20195;-74
2023/10/14 00:20:07;;;;;;;12.40;7.20;;;;;;;18.23;82.39;99171.53;5076340;28;20193;-74
2023/10/14 00:22:39;;;;;;;13.83;7.07;;;;;;;18.23;82.23;99178.84;5076298;28;20280;-74
2023/10/14 00:25:19;;;;;;;11.60;7.27;;;;;;;18.24;81.85;99165.06;5075853;28;20778;-74
2023/10/14 00:27:50;;;;;;;13.17;7.60;;;;;;;18.28;81.20;99170.81;5076183;28;20257;-74
2023/10/14 00:30:20;;;;;;;11.87;6.67;;;;;;;18.27;81.58;99157.50;5076068;28;20213;-74
2023/10/14 00:32:49;;;;;;;13.00;6.97;;;;;;;18.36;80.47;99156.00;5076010;28;20216;-74
2023/10/14 00:35:20;;;;;;;13.80;7.27;;;;;;;18.43;79.87;99162.88;5075054;28;20225;-74
2023/10/14 00:37:52;;;;;;;10.33;6.43;;;;;;;18.45;79.54;99135.56;5075949;28;20254;-74
2023/10/14 00:40:23;;;;;;;14.50;6.23;;;;;;;18.48;79.52;99137.75;5075943;28;20281;-74
2023/10/14 00:42:53;;;;;;;11.43;6.93;;;;;;;18.44;80.00;99142.84;5075927;28;20186;-74
2023/10/14 00:45:22;;;;;;;13.80;7.47;;;;;;;18.46;79.52;99121.75;5075751;28;20232;-74
2023/10/14 00:47:50;;;;;;;13.87;7.40;;;;;;;18.47;79.37;99112.53;5075726;28;20240;-74
2023/10/14 00:50:33;;;;;;;13.40;6.73;;;;;;;18.41;79.71;99105.44;5075311;28;20232;-74
2023/10/14 00:53:05;;;;;;;11.37;6.77;;;;;;;18.41;79.67;99091.88;5075738;28;20190;-74
2023/10/14 00:55:52;;;;;;;10.50;6.83;;;;;;;18.39;79.79;99091.28;5075819;28;20225;-74
2023/10/14 00:58:23;;;;;;;11.60;6.97;;;;;;;18.49;78.75;99096.84;5075308;28;20200;-74
2023/10/14 01:00:58;;;;;;;13.87;6.90;;;;;;;18.42;79.03;99104.38;5075617;28;20206;-74
2023/10/14 01:03:30;;;;;;;11.93;6.43;;;;;;;18.37;79.37;99088.03;5075261;28;20189;-74
2023/10/14 01:06:06;;;;;;;9.67;6.73;;;;;;;18.39;79.06;99091.28;5075409;28;20320;-74
2023/10/14 01:08:42;;;;;;;14.70;6.93;;;;;;;18.33;79.27;99088.78;5075407;28;20292;-74
2023/10/14 01:11:11;;;;;;;8.90;6.17;;;;;;;18.33;78.90;99091.47;5075307;28;20247;-74
2023/10/14 01:13:39;;;;;;;11.50;6.73;;;;;;;18.32;78.49;99090.69;5075609;28;20214;-74
2023/10/14 01:16:09;;;;;;;10.60;6.77;;;;;;;18.32;78.20;99106.94;5075152;28;20268;-74
2023/10/14 01:18:39;;;;;;;10.93;7.13;;;;;;;18.32;78.04;99090.69;5074862;28;20211;-74
2023/10/14 01:21:08;;;;;;;10.20;6.00;;;;;;;18.35;77.40;99064.97;5075122;28;20267;-74
2023/10/14 01:23:38;;;;;;;10.50;6.57;;;;;;;18.35;77.19;99084.75;5075066;28;20236;-74
2023/10/14 01:26:09;;;;;;;11.80;6.67;;;;;;;18.35;77.23;99087.47;5075046;28;20312;-74
2023/10/14 01:28:45;;;;;;;12.73;7.20;;;;;;;18.40;76.47;99084.00;5075058;28;20190;-74
2023/10/14 01:31:43;;;;;;;11.57;7.00;;;;;;;18.36;76.68;99091.78;5074591;28;20303;-74
2023/10/14 01:34:24;;;;;;;8.83;6.33;;;;;;;18.41;76.26;99085.63;5074447;28;20225;-74
2023/10/14 01:36:53;;;;;;;14.07;7.17;;;;;;;18.39;76.31;99091.28;5074819;28;20284;-74
2023/10/14 01:39:26;;;;;;;10.47;7.10;;;;;;;18.37;76.68;99077.19;5074791;28;20205;-74
2023/10/14 01:41:54;;;;;;;10.33;6.83;;;;;;;18.36;76.87;99086.38;5074452;28;20608;-62
2023/10/14 01:44:23;;;;;;;13.53;7.50;;;;;;;18.37;76.83;99069.06;5074519;28;20271;-63
2023/10/14 01:46:55;;;;;;;9.27;7.00;;;;;;;18.37;76.79;99092.63;5074242;28;20301;-73
2023/10/14 01:49:27;;;;;;;12.40;7.20;;;;;;;18.37;76.85;99093.44;5074167;28;20672;-73
2023/10/14 01:51:59;;;;;;;12.50;7.07;;;;;;;18.33;77.79;99113.97;5074518;28;20561;-73
2023/10/14 01:54:29;;;;;;;9.20;5.93;;;;;;;18.24;79.68;99104.66;5074095;28;20244;-72
2023/10/14 01:56:59;;;;;;;8.20;3.33;;;;;;;17.96;81.18;99108.28;5074399;28;20292;-72
2023/10/14 01:59:27;;;;;;;5.20;2.67;;;;;;;17.80;83.27;99109.13;5074356;28;20292;-73
2023/10/14 02:01:57;;;;;;;4.77;2.23;;;;;;;17.53;85.56;99106.22;5074319;28;20255;-71
2023/10/14 02:04:27;;;;;;;6.40;2.57;;;;;;;17.46;86.66;99094.72;5073962;28;20714;-72
2023/10/14 02:07:15;;;;;;;3.17;2.00;;;;;;;17.19;89.21;99112.66;5073932;28;20606;-72
2023/10/14 02:09:45;;;;;;;3.40;1.83;;;;;;;16.99;91.03;99134.69;5074205;28;20194;-72
2023/10/14 02:12:13;;;;;;;6.43;2.37;;;;;;;16.87;92.23;99152.84;5074024;28;20225;-72
2023/10/14 02:14:44;;;;;;;7.73;2.47;;;;;;;16.64;95.75;99175.31;5074008;28;20226;-72
2023/10/14 02:17:13;;;;;;;2.73;1.90;;;;;;;16.56;96.53;99147.84;5074090;28;20265;-72
2023/10/14 02:19:41;;;;;;;8.23;2.20;;;;;;;16.49;97.80;99171.44;5073963;28;20279;-71
2023/10/14 02:22:10;;;;;;;6.47;2.07;;;;;;;16.45;98.05;99171.09;5073642;28;20683;-72
2023/10/14 02:24:40;;;;;;;9.90;1.90;;;;;;;16.27;95.37;99246.00;5073822;28;20226;-71
2023/10/14 02:27:12;;;;;;;4.70;2.03;;;;;;;15.84;89.47;99286.75;5073928;28;20282;-71
2023/10/14 02:29:43;;;;;;;1.57;1.10;;;;;;;15.54;85.02;99346.91;5073881;28;20194;-71
2023/10/14 02:32:13;;;;;;;2.07;1.40;;;;;;;15.18;85.11;99295.66;5073468;28;20637;-71
2023/10/14 02:34:44;;;;;;;2.57;1.20;;;;;;;15.28;84.93;99287.84;5073718;28;20233;-71
2023/10/14 02:37:14;;;;;;;5.37;1.30;;;;;;;15.10;83.86;99298.66;5073782;28;20190;-71
2023/10/14 02:39:44;;;;;;;2.60;1.20;;;;;;;15.04;84.37;99303.06;5073709;28;20220;-71
2023/10/14 02:42:14;;;;;;;3.27;1.33;;;;;;;15.12;85.87;99304.63;5073725;28;20731;-71
2023/10/14 02:44:47;;;;;;;4.33;1.57;;;;;;;14.97;85.38;99296.09;5073612;28;20225;-71
2023/10/14 02:47:19;;;;;;;5.33;1.53;;;;;;;15.14;83.82;99291.75;5073662;28;20247;-71
2023/10/14 02:49:53;;;;;;;4.17;1.40;;;;;;;15.04;85.72;99299.53;5073448;28;20308;-71
2023/10/14 02:52:28;;;;;;;2.57;1.30;;;;;;;15.13;85.06;99298.22;5073588;28;20247;-71
2023/10/14 02:55:19;;;;;;;3.30;1.20;;;;;;;15.10;83.81;99312.13;5073520;28;20228;-71
2023/10/14 02:57:49;;;;;;;3.90;1.50;;;;;;;15.15;85.03;99314.97;5073211;28;20206;-71
2023/10/14 03:00:23;;;;;;;2.87;1.17;;;;;;;15.02;84.57;99309.72;5073457;28;20300;-71
2023/10/14 03:02:54;;;;;;;2.43;1.33;;;;;;;15.01;83.69;99305.38;5073147;28;20548;-71
2023/10/14 03:05:41;;;;;;;5.03;1.47;;;;;;;15.10;86.10;99304.84;5073951;28;20229;-71
2023/10/14 03:08:11;;;;;;;3.90;1.27;;;;;;;15.03;86.09;99335.63;5073475;28;20276;-71
2023/10/14 03:10:42;;;;;;;5.63;1.40;;;;;;;15.03;86.14;99357.19;5073403;28;20205;-71
2023/10/14 03:13:13;;;;;;;3.77;1.37;;;;;;;15.09;84.69;99353.59;5072993;28;20621;-71
2023/10/14 03:15:44;;;;;;;4.30;1.47;;;;;;;15.12;84.76;99342.38;5072996;28;20745;-71
2023/10/14 03:18:16;;;;;;;3.10;1.20;;;;;;;14.87;87.32;99377.44;5073355;28;20190;-72
2023/10/14 03:20:58;;;;;;;2.43;1.57;;;;;;;14.85;85.99;99394.88;5073291;28;20190;-71
2023/10/14 03:23:32;;;;;;;2.57;1.23;;;;;;;14.73;86.41;99396.66;5073314;28;20190;-71
2023/10/14 03:26:10;;;;;;;2.47;1.20;;;;;;;14.82;87.96;99406.09;5073193;28;20263;-71
2023/10/14 03:28:40;;;;;;;4.67;1.57;;;;;;;14.79;89.03;99409.25;5073247;28;20327;-71
2023/10/14 03:31:09;;;;;;;3.80;1.43;;;;;;;14.82;87.51;99433.06;5073222;28;20287;-71
2023/10/14 03:33:43;;;;;;;2.70;1.47;;;;;;;14.58;88.60;99440.88;5073063;28;20225;-71
2023/10/14 03:36:16;;;;;;;2.00;1.10;;;;;;;14.56;88.88;99451.03;5073138;28;20226;-71
2023/10/14 03:38:54;;;;;;;2.50;1.30;;;;;;;14.34;89.80;99468.59;5073134;28;20194;-71
2023/10/14 03:41:29;;;;;;;2.43;1.20;;;;;;;14.49;89.41;99468.28;5072806;28;20647;-71
2023/10/14 03:44:05;;;;;;;2.73;0.97;;;;;;;14.40;89.83;99477.66;5073015;28;20228;-71
2023/10/14 03:46:34;;;;;;;2.50;1.03;;;;;;;14.30;90.82;99486.16;5073068;28;20193;-71
2023/10/14 03:49:11;;;;;;;3.53;1.60;;;;;;;14.37;90.85;99497.78;5072755;28;20206;-72
2023/10/14 03:51:41;;;;;;;2.20;1.17;;;;;;;14.18;92.61;99512.09;5073062;28;20190;-72
2023/10/14 03:54:12;;;;;;;3.37;1.70;;;;;;;14.20;92.19;99510.03;5072889;28;20217;-71
2023/10/14 03:56:45;;;;;;;2.57;1.60;;;;;;;14.28;92.20;99496.31;5073007;28;20200;-71
2023/10/14 03:59:22;;;;;;;3.53;1.70;;;;;;;14.22;91.74;99502.56;5072984;28;20201;-71
2023/10/14 04:01:57;;;;;;;4.33;1.70;;;;;;;14.36;91.07;99500.66;5072946;28;20197;-72
2023/10/14 04:04:28;;;;;;;2.30;1.70;;;;;;;14.29;91.40;99510.59;5072836;28;20311;-71
2023/10/14 04:09:44;;;;;;;2.17;1.47;;;;;;;14.19;91.71;99516.44;5072919;28;20193;-71
2023/10/14 04:12:28;;;;;;;2.57;1.70;;;;;;;14.22;92.54;99532.16;5076255;28;20239;-71
2023/10/14 04:15:05;;;;;;;4.30;1.80;;;;;;;14.18;91.78;99517.47;5076379;28;20275;-71
2023/10/14 04:17:34;;;;;;;3.37;1.50;;;;;;;13.80;92.32;99535.41;5076369;28;20201;-71
2023/10/14 04:20:20;;;;;;;2.30;1.50;;;;;;;13.94;92.72;99548.59;5076295;28;20236;-71
2023/10/14 04:22:52;;;;;;;3.10;1.83;;;;;;;13.95;92.88;99544.06;5075978;28;20231;-71
2023/10/14 04:25:22;;;;;;;4.53;1.80;;;;;;;13.79;92.64;99555.28;5075887;28;20750;-71
2023/10/14 04:30:44;;;;;;;4.23;1.50;;;;;;;13.63;91.24;99568.09;5070696;28;20801;-71
2023/10/14 04:33:22;;;;;;;4.87;1.60;;;;;;;13.46;88.83;99566.88;5075748;28;20263;-72
2023/10/14 04:36:21;;;;;;;5.20;1.70;;;;;;;13.40;88.25;99574.94;5075683;28;20350;-71
2023/10/14 04:39:04;;;;;;;6.23;2.43;;;;;;;13.33;87.75;99579.50;5075974;28;20312;-71
2023/10/14 04:41:36;;;;;;;9.10;2.10;;;;;;;13.12;86.29;99588.56;5075952;28;20190;-71
2023/10/14 04:44:11;;;;;;;9.07;2.03;;;;;;;13.19;85.29;99592.94;5075851;28;20251;-71
2023/10/14 04:46:51;;;;;;;8.47;2.23;;;;;;;13.05;84.17;99588.53;5075538;28;20600;-70
2023/10/14 04:49:29;;;;;;;8.00;2.27;;;;;;;13.12;85.44;99599.31;5075723;28;20237;-71
2023/10/14 04:51:58;;;;;;;9.10;2.03;;;;;;;13.13;85.49;99601.81;5075769;28;20232;-71
2023/10/14 04:54:29;;;;;;;5.87;1.90;;;;;;;13.14;84.86;99616.91;5075527;28;20229;-71
2023/10/14 04:56:58;;;;;;;7.47;2.27;;;;;;;13.07;86.38;99617.91;5075628;28;20205;-71
2023/10/14 04:59:30;;;;;;;8.87;2.60;;;;;;;13.01;85.49;99629.47;5075581;28;20206;-71
2023/10/14 05:02:00;;;;;;;7.83;2.00;;;;;;;12.86;84.43;99631.47;5075602;28;20565;-71
2023/10/14 05:04:31;;;;;;;4.73;2.03;;;;;;;12.99;85.82;99634.19;5075427;28;20305;-71
2023/10/14 05:07:04;;;;;;;8.60;2.10;;;;;;;12.92;85.00;99639.53;5075453;28;20193;-71
2023/10/14 05:09:39;;;;;;;7.90;1.90;;;;;;;12.97;84.16;99642.47;5075110;28;20678;-71
2023/10/14 05:12:17;;;;;;;8.20;2.23;;;;;;;13.01;84.83;99650.97;5075366;28;20193;-71
2023/10/14 05:14:45;;;;;;;7.13;2.20;;;;;;;13.10;84.59;99657.81;5075149;28;20232;-71
2023/10/14 05:17:16;;;;;;;7.30;2.20;;;;;;;13.05;83.97;99669.13;5075226;28;20236;-71
2023/10/14 05:19:54;;;;;;;8.87;2.30;;;;;;;12.84;85.10;99674.66;5075435;28;20201;-71
2023/10/14 05:22:26;;;;;;;9.90;2.40;;;;;;;12.85;84.88;99680.84;5074842;28;20247;-71
2023/10/14 05:25:02;;;;;;;8.03;2.20;;;;;;;12.65;84.88;99686.97;5075035;28;20222;-71
2023/10/14 05:27:46;;;;;;;11.00;2.53;;;;;;;12.74;85.72;99690.28;5074773;28;20558;-71
2023/10/14 05:30:21;;;;;;;7.07;2.30;;;;;;;12.68;85.01;99702.69;5075021;28;20193;-71
2023/10/14 05:32:52;;;;;;;7.80;2.27;;;;;;;12.76;85.58;99708.91;5074872;28;20197;-71
2023/10/14 05:35:23;;;;;;;10.70;2.57;;;;;;;12.59;86.14;99713.78;5074850;28;20236;-71
2023/10/14 05:37:51;;;;;;;8.53;2.30;;;;;;;12.45;85.33;99734.34;5074549;28;20770;-72
2023/10/14 05:40:21;;;;;;;9.83;2.73;;;;;;;12.43;86.25;99731.03;5074791;28;20248;-72
2023/10/14 05:42:50;;;;;;;7.77;2.37;;;;;;;12.42;85.02;99744.66;5074892;28;20212;-71
2023/10/14 05:45:21;;;;;;;8.30;2.43;;;;;;;12.30;85.82;99751.56;5074651;28;20225;-71
2023/10/14 05:47:51;;;;;;;8.87;2.70;;;;;;;12.31;85.18;99754.06;5074694;28;20202;-71
2023/10/14 05:50:19;;;;;;;9.07;2.20;;;;;;;12.29;85.94;99756.13;5074204;28;20267;-71
2023/10/14 05:52:49;;;;;;;10.87;2.80;;;;;;;12.16;84.95;99772.09;5074433;28;20205;-71
2023/10/14 05:55:19;;;;;;;9.37;2.33;;;;;;;12.16;85.54;99764.88;5074407;28;20229;-71
2023/10/14 05:57:49;;;;;;;10.57;2.30;;;;;;;12.20;85.98;99778.75;5074471;28;20196;-72
2023/10/14 06:00:21;;;;;;;8.10;2.80;;;;;;;12.20;86.39;99784.13;5074389;28;20205;-71
2023/10/14 06:02:52;;;;;;;10.63;2.57;;;;;;;12.10;86.39;99794.34;5075226;28;20197;-71
2023/10/14 06:05:23;;;;;;;9.40;2.33;;;;;;;12.13;85.72;99804.69;5073900;28;20707;-71
2023/10/14 06:07:59;;;;;;;8.73;2.20;;;;;;;12.07;85.65;99814.34;5074280;28;20284;-72
2023/10/14 06:10:31;;;;;;;12.17;2.97;;;;;;;12.05;85.67;99823.63;5073937;28;20639;-72
2023/10/14 06:12:59;;;;;;;10.67;2.13;;;;;;;12.01;85.09;99839.28;5074090;28;20189;-72
2023/10/14 06:15:28;;;;;;;8.93;2.53;;;;;;;12.00;86.11;99842.13;5073735;28;20316;-71
2023/10/14 06:17:58;;;;;;;8.17;2.33;;;;;;;12.06;85.56;99854.78;5074078;28;20241;-71
2023/10/14 06:20:26;;;;;;;10.17;2.50;;;;;;;12.01;85.92;99854.53;5073998;28;20251;-72
2023/10/14 06:22:59;;;;;;;8.60;2.20;;;;;;;11.92;85.56;99852.97;5073968;28;20216;-72
2023/10/14 06:25:29;;;;;;;9.67;2.33;;;;;;;11.81;85.28;99866.91;5073886;28;20221;-71
2023/10/14 06:27:58;;;;;;;7.33;2.20;;;;;;;11.81;85.01;99872.28;5073560;28;20209;-71
2023/10/14 06:30:33;;;;;;;11.53;2.63;;;;;;;11.81;84.78;99880.31;5073894;28;20196;-71
2023/10/14 06:33:04;;;;;;;12.63;2.30;;;;;;;11.81;86.08;99891.88;5073196;28;20185;-71
2023/10/14 06:35:34;;;;;;;10.43;2.10;;;;;;;11.87;85.32;99895.66;5073681;28;20236;-71
2023/10/14 06:38:04;;;;;;;12.87;3.00;;;;;;;11.83;85.60;99902.41;5073783;28;20208;-71
2023/10/14 06:40:35;;;;;;;9.20;2.33;;;;;;;11.81;84.53;99913.34;5073779;28;20588;-71
2023/10/14 06:43:07;;;;;;;10.80;2.30;;;;;;;11.81;84.60;99917.88;5073729;28;20289;-71
2023/10/14 06:45:36;;;;;;;8.83;2.20;;;;;;;11.90;85.49;99922.09;5073614;28;20225;-72
2023/10/14 06:48:09;;;;;;;8.53;2.30;;;;;;;11.98;85.07;99930.88;5073652;28;20634;-72
2023/10/14 06:50:41;;;;;;;7.50;2.37;;;;;;;11.90;83.35;99933.66;5073228;28;20239;-72
2023/10/14 06:53:10;;;;;;;11.03;2.33;;;;;;;11.88;84.23;99945.59;5073633;28;20288;-72
2023/10/14 06:55:40;;;;;;;10.43;2.13;;;;;;;11.83;84.34;99945.31;5073127;28;20639;-72
2023/10/14 06:58:11;;;;;;;11.43;2.70;;;;;;;11.78;84.39;99947.75;5073502;28;20257;-72
2023/10/14 07:00:40;;;;;;;11.37;2.93;;;;;;;11.76;85.48;99963.16;5073546;28;20194;-72
2023/10/14 07:03:12;;;;;;;13.40;2.50;;;;;;;11.73;85.77;99968.91;5073480;28;20209;-72
2023/10/14 07:05:46;;;;;;;10.63;2.40;;;;;;;11.77;85.64;99970.19;5073114;28;20225;-71
2023/10/14 07:08:15;;;;;;;9.90;2.43;;;;;;;11.85;85.29;99972.78;5073481;28;20192;-71
2023/10/14 07:10:47;;;;;;;13.00;2.57;;;;;;;11.86;85.73;99974.44;5073398;28;20252;-71
2023/10/14 07:13:17;;;;;;;10.73;3.03;;;;;;;11.84;85.25;99981.84;5073117;28;20233;-71
2023/10/14 07:15:45;;;;;;;7.87;2.20;;;;;;;11.74;84.65;99987.50;5072874;28;20236;-71
2023/10/14 07:18:18;;;;;;;12.20;2.53;;;;;;;11.81;84.12;99992.97;5073353;28;20209;-71
2023/10/14 07:20:47;;;;;;;11.03;2.77;;;;;;;11.86;84.92;99994.03;5073339;28;20193;-71
2023/10/14 07:23:15;;;;;;;14.23;2.50;;;;;;;11.84;85.23;99998.78;5072864;28;20732;-71
2023/10/14 07:25:44;;;;;;;12.37;3.00;;;;;;;11.86;84.37;100001.25;5073120;28;20255;-71
2023/10/14 07:28:13;;;;;;;12.13;2.80;;;;;;;11.85;84.24;100018.38;5073154;28;20205;-71
2023/10/14 07:30:46;;;;;;;7.63;2.50;;;;;;;11.92;83.70;100017.44;5072593;28;20205;-70
2023/10/14 07:33:17;;;;;;;15.20;2.70;;;;;;;11.89;82.43;100011.59;5073227;28;20197;-71
2023/10/14 07:35:47;;;;;;;11.87;2.53;;;;;;;11.94;83.50;100014.59;5073043;28;20279;-71
2023/10/14 07:38:15;;;;;;;12.43;2.50;;;;;;;11.98;84.25;100026.59;5073141;28;20255;-71
2023/10/14 07:40:44;;;;;;;12.33;2.90;;;;;;;12.02;83.55;100028.72;5073155;28;20389;-70
2023/10/14 07:43:12;;;;;;;12.53;2.83;;;;;;;12.06;83.68;100039.91;5072865;28;20205;-72
2023/10/14 07:45:43;;;;;;;12.00;2.80;;;;;;;12.07;83.21;100042.41;5075605;28;20600;-70
2023/10/14 07:48:17;;;;;;;10.07;2.50;;;;;;;12.14;83.52;100047.84;5077033;28;20206;-70
2023/10/14 07:50:50;;;;;;;8.00;2.13;;;;;;;12.18;82.73;100050.00;5076611;28;20221;-71
2023/10/14 07:53:22;;;;;;;12.70;2.83;;;;;;;12.18;80.63;100060.72;5076879;28;20272;-70
2023/10/14 07:55:52;;;;;;;11.73;2.70;;;;;;;12.27;81.12;100052.56;5076689;28;20287;-70
2023/10/14 07:58:24;;;;;;;13.27;2.43;;;;;;;12.25;79.93;100070.69;5077064;28;20642;-71
2023/10/14 08:00:54;;;;;;;13.10;2.50;;;;;;;12.29;79.75;100072.00;5076743;28;20196;-71
2023/10/14 08:03:24;;;;;;;10.47;3.20;;;;;;;12.30;80.21;100074.47;5076332;28;20762;-70
2023/10/14 08:05:59;;;;;;;9.03;2.60;;;;;;;12.34;80.74;100074.94;5076561;28;20221;-70
2023/10/14 08:08:30;;;;;;;10.07;2.27;;;;;;;12.36;80.06;100079.13;5076202;28;20190;-71
2023/10/14 08:11:00;;;;;;;10.83;2.37;;;;;;;12.41;79.95;100078.53;5076548;28;20192;-70
2023/10/14 08:13:31;;;;;;;9.63;2.50;;;;;;;12.39;78.86;100088.66;5076115;28;20743;-70
2023/10/14 08:16:00;;;;;;;14.67;2.57;;;;;;;12.50;79.13;100086.28;5076300;28;20240;-71
2023/10/14 08:18:29;;;;;;;10.27;2.30;;;;;;;12.58;78.57;100091.56;5076424;28;20566;-71
2023/10/14 08:20:59;;;;;;;13.37;2.40;;;;;;;12.57;77.60;100089.88;5076355;28;20232;-71
2023/10/14 08:23:28;;;;;;;9.67;2.53;;;;;;;12.67;78.39;100098.47;5076335;28;20229;-70
2023/10/14 08:25:59;;;;;;;11.30;2.80;;;;;;;12.74;77.46;100111.16;5076157;28;20279;-71
2023/10/14 08:28:29;;;;;;;10.93;2.60;;;;;;;12.85;77.50;100100.75;5076129;28;20267;-72
2023/10/14 08:30:59;;;;;;;10.60;2.50;;;;;;;12.92;76.85;100116.94;5076107;28;20215;-71
2023/10/14 08:33:29;;;;;;;13.63;2.60;;;;;;;12.99;77.42;100118.66;5076104;28;20205;-70
2023/10/14 08:35:59;;;;;;;11.03;2.37;;;;;;;13.08;76.33;100105.94;5075916;28;20279;-70
2023/10/14 08:38:28;;;;;;;8.67;2.30;;;;;;;13.16;75.75;100120.13;5076036;28;20201;-70
2023/10/14 08:40:59;;;;;;;16.40;3.10;;;;;;;13.04;74.65;100115.41;5075939;28;20205;-70
2023/10/14 08:43:30;;;;;;;17.13;3.00;;;;;;;13.09;74.21;100119.22;5075944;28;20189;-70
2023/10/14 08:46:00;;;;;;;15.97;2.70;;;;;;;13.06;74.14;100134.84;5076417;28;20218;-70
2023/10/14 08:48:30;;;;;;;13.10;3.27;;;;;;;13.09;73.73;100131.81;5075826;28;20209;-70
2023/10/14 08:51:00;;;;;;;14.27;3.13;;;;;;;13.14;74.68;100129.41;5075428;28;20217;-70
2023/10/14 08:53:39;;;;;;;9.90;2.47;;;;;;;13.08;74.42;100128.25;5075406;28;20244;-71
2023/10/14 08:56:09;;;;;;;10.87;2.40;;;;;;;13.00;74.09;100135.63;5074568;28;20758;-71
2023/10/14 08:58:38;;;;;;;13.70;2.90;;;;;;;13.06;73.99;100129.47;5074431;28;20297;-70
2023/10/14 09:01:11;;;;;;;9.93;2.97;;;;;;;13.13;73.50;100146.53;5075242;28;20614;-71
2023/10/14 09:03:42;;;;;;;13.73;3.23;;;;;;;13.23;73.86;100141.69;5075592;28;20243;-71
2023/10/14 09:06:12;;;;;;;15.13;2.97;;;;;;;13.30;73.20;100147.94;5075440;28;20225;-71
2023/10/14 09:08:44;;;;;;;10.53;2.70;;;;;;;13.38;73.14;100161.28;5075127;28;20664;-71
2023/10/14 09:11:27;;;;;;;13.40;2.83;;;;;;;13.36;71.10;100152.56;5075471;28;20212;-71
2023/10/14 09:14:06;;;;;;;12.00;2.67;;;;;;;13.38;70.94;100163.13;5075017;28;20648;-70
2023/10/14 09:16:36;;;;;;;12.67;2.67;;;;;;;13.33;72.05;100168.25;5075221;28;20232;-70
2023/10/14 09:19:05;;;;;;;12.73;3.03;;;;;;;13.43;70.80;100171.44;5075775;28;20562;-70
2023/10/14 09:21:43;;;;;;;9.87;2.60;;;;;;;13.39;70.48;100160.22;5074847;28;20667;-70
2023/10/14 09:24:12;;;;;;;12.90;3.27;;;;;;;13.44;69.54;100176.63;5074810;28;20225;-70
2023/10/14 09:26:44;;;;;;;9.20;2.50;;;;;;;13.47;69.49;100181.63;5075079;28;20201;-71
2023/10/14 09:29:13;;;;;;;13.17;2.77;;;;;;;13.56;69.86;100169.69;5074816;28;20674;-71
2023/10/14 09:31:46;;;;;;;10.50;2.77;;;;;;;13.65;70.60;100178.47;5075018;28;20259;-71
2023/10/14 09:34:23;;;;;;;12.17;2.77;;;;;;;13.65;69.68;100191.94;5074920;28;20229;-71
2023/10/14 09:36:55;;;;;;;8.93;2.67;;;;;;;13.70;69.41;100187.63;5074601;28;20567;-71
2023/10/14 09:39:28;;;;;;;9.10;2.33;;;;;;;13.67;68.04;100185.31;5074856;28;20197;-71
2023/10/14 09:41:59;;;;;;;10.80;2.80;;;;;;;13.78;67.62;100183.13;5074842;28;20556;-71
2023/10/14 09:44:30;;;;;;;12.63;2.37;;;;;;;13.79;69.04;100185.66;5074405;28;20608;-71
2023/10/14 09:47:00;;;;;;;14.93;2.80;;;;;;;13.81;68.99;100197.03;5074384;28;20635;-71
2023/10/14 09:49:29;;;;;;;11.43;3.07;;;;;;;13.79;69.55;100206.34;5074385;28;20231;-70
2023/10/14 09:52:02;;;;;;;12.17;2.50;;;;;;;13.92;68.35;100211.81;5074768;28;20212;-71
2023/10/14 09:54:32;;;;;;;15.03;2.90;;;;;;;13.94;67.45;100204.41;5074536;28;20252;-71
2023/10/14 09:57:01;;;;;;;11.50;3.03;;;;;;;13.95;65.92;100211.44;5074454;28;20316;-70
2023/10/14 09:59:33;;;;;;;13.40;2.80;;;;;;;13.86;65.55;100210.75;5074399;28;20294;-71
2023/10/14 10:02:02;;;;;;;8.90;2.63;;;;;;;13.86;65.90;100216.13;5074441;28;20235;-71
2023/10/14 10:04:35;;;;;;;13.00;3.03;;;;;;;13.73;65.20;100219.50;5073960;28;20314;-71
2023/10/14 10:07:24;;;;;;;14.97;2.43;;;;;;;13.70;63.74;100238.75;5074225;28;20193;-71
2023/10/14 10:10:13;;;;;;;14.03;2.97;;;;;;;13.70;64.28;100214.53;5073829;28;20557;-71
2023/10/14 10:12:43;;;;;;;8.27;2.43;;;;;;;13.78;65.62;100224.34;5074213;28;20190;-71
2023/10/14 10:15:19;;;;;;;8.43;2.40;;;;;;;13.87;64.55;100223.16;5073959;28;20275;-71
2023/10/14 10:18:02;;;;;;;9.37;2.70;;;;;;;13.99;63.79;100226.16;5074124;28;20198;-70
2023/10/14 10:20:35;;;;;;;8.77;2.33;;;;;;;14.07;63.40;100237.63;5074075;28;20220;-71
2023/10/14 10:23:09;;;;;;;12.40;2.77;;;;;;;14.17;63.74;100239.97;5074032;28;20193;-70
2023/10/14 10:25:51;;;;;;;8.57;2.23;;;;;;;14.35;63.76;100234.94;5073906;28;20355;-70
2023/10/14 10:28:39;;;;;;;11.07;2.30;;;;;;;14.33;62.60;100245.06;5073947;28;20217;-70
2023/10/14 10:31:10;;;;;;;10.53;2.57;;;;;;;14.38;61.79;100245.34;5073858;28;20205;-71
2023/10/14 10:33:47;;;;;;;15.50;3.00;;;;;;;14.45;62.10;100254.28;5073951;28;20204;-71
2023/10/14 10:36:22;;;;;;;11.57;2.77;;;;;;;14.43;62.03;100250.97;5073741;28;20232;-71
2023/10/14 10:38:57;;;;;;;14.77;2.67;;;;;;;14.55;62.76;100254.78;5073788;28;20193;-71
2023/10/14 10:41:27;;;;;;;10.40;2.63;;;;;;;14.66;62.23;100253.38;5073809;28;20185;-71
2023/10/14 10:44:02;;;;;;;7.40;2.37;;;;;;;14.75;61.09;100257.59;5073682;28;20243;-70
2023/10/14 10:46:39;;;;;;;10.77;2.50;;;;;;;14.92;60.65;100247.31;5073742;28;20213;-71
2023/10/14 10:49:10;;;;;;;9.00;2.50;;;;;;;15.03;62.42;100255.66;5073533;28;20205;-70
2023/10/14 10:51:50;;;;;;;8.33;2.10;;;;;;;14.68;59.21;100273.72;5073606;28;20247;-71
2023/10/14 10:54:22;;;;;;;11.87;2.40;;;;;;;14.69;58.55;100272.69;5073525;28;20225;-71
2023/10/14 10:56:51;;;;;;;9.97;2.37;;;;;;;14.62;57.95;100268.31;5073494;28;20220;-70
2023/10/14 10:59:36;;;;;;;11.20;2.80;;;;;;;14.70;60.13;100276.22;5073566;28;20193;-70
2023/10/14 11:02:07;;;;;;;10.00;2.80;;;;;;;14.68;58.25;100279.13;5073555;28;20197;-71
2023/10/14 11:04:37;;;;;;;9.10;2.67;;;;;;;14.65;60.35;100273.28;5074287;28;20229;-71
2023/10/14 11:07:08;;;;;;;7.97;2.23;;;;;;;14.51;59.09;100276.94;5073426;28;20207;-71
2023/10/14 11:09:39;;;;;;;9.67;2.60;;;;;;;14.31;59.53;100271.38;5073450;28;20190;-71
2023/10/14 11:12:10;;;;;;;9.10;2.53;;;;;;;14.13;59.18;100274.53;5073477;28;20189;-71
2023/10/14 11:14:38;;;;;;;9.20;2.73;;;;;;;14.14;59.29;100280.75;5073037;28;20229;-71
2023/10/14 11:17:07;;;;;;;11.13;2.80;;;;;;;14.22;60.14;100286.81;5072959;28;20231;-70
2023/10/14 11:19:36;;;;;;;7.27;2.10;;;;;;;14.13;57.96;100290.69;5074510;28;20215;-71
2023/10/14 11:22:06;;;;;;;7.63;2.23;;;;;;;14.16;59.57;100290.31;5077522;28;20205;-71
2023/10/14 11:24:36;;;;;;;11.03;2.67;;;;;;;14.13;58.94;100285.31;5077359;28;20603;-70
2023/10/14 11:27:06;;;;;;;6.73;2.50;;;;;;;14.27;59.07;100288.09;5077336;28;20296;-70
2023/10/14 11:29:36;;;;;;;10.13;2.43;;;;;;;14.48;58.70;100278.16;5077368;28;20197;-71
2023/10/14 11:32:05;;;;;;;9.37;2.40;;;;;;;14.66;58.18;100274.94;5077348;28;20288;-71
2023/10/14 11:34:37;;;;;;;12.27;2.50;;;;;;;14.81;55.94;100285.59;5076830;28;20714;-70
2023/10/14 11:37:09;;;;;;;10.93;2.33;;;;;;;14.92;57.08;100277.81;5077157;28;20271;-70
2023/10/14 11:39:37;;;;;;;9.83;2.73;;;;;;;15.04;57.49;100281.56;5077249;28;20186;-71
2023/10/14 11:42:07;;;;;;;7.80;2.20;;;;;;;15.13;54.48;100279.56;5077086;28;20275;-71
2023/10/14 11:44:37;;;;;;;12.20;2.70;;;;;;;15.28;56.09;100269.44;5076973;28;20225;-70
2023/10/14 11:47:08;;;;;;;8.37;2.70;;;;;;;15.22;55.26;100275.66;5076959;28;20259;-70
2023/10/14 11:49:37;;;;;;;13.30;3.00;;;;;;;15.37;56.36;100283.59;5076739;28;20217;-71
2023/10/14 11:52:06;;;;;;;11.73;2.80;;;;;;;15.52;55.94;100266.22;5076897;28;20193;-72
2023/10/14 11:54:37;;;;;;;9.17;2.60;;;;;;;15.54;55.01;100271.44;5076811;28;20229;-71
2023/10/14 11:57:08;;;;;;;9.23;2.30;;;;;;;15.38;53.27;100279.84;5076735;28;20220;-71